createdAt,value
2023-02-27T00:02:11.819Z,3.83
2023-02-27T00:04:38.277Z,3.53
2023-02-27T00:07:04.763Z,3.20
2023-02-27T00:09:31.312Z,3.60
2023-02-27T00:11:57.861Z,3.23
2023-02-27T00:14:24.434Z,3.27
2023-02-27T00:16:51.255Z,3.10
2023-02-27T00:19:17.748Z,3.77
2023-02-27T00:21:46.788Z,3.30
2023-02-27T00:24:13.565Z,4.03
2023-02-27T00:26:40.139Z,3.70
2023-02-27T00:29:06.799Z,2.87
2023-02-27T00:31:33.519Z,3.60
2023-02-27T00:34:00.346Z,3.47
2023-02-27T00:36:27.080Z,3.43
2023-02-27T00:38:53.789Z,3.40
2023-02-27T00:41:20.274Z,3.50
2023-02-27T00:43:46.708Z,3.67
2023-02-27T00:46:13.334Z,3.90
2023-02-27T00:48:39.835Z,3.27
2023-02-27T00:51:06.292Z,3.20
2023-02-27T00:53:32.789Z,2.70
2023-02-27T00:55:59.218Z,3.20
2023-02-27T00:58:25.809Z,3.27
2023-02-27T01:00:52.322Z,2.70
2023-02-27T01:03:18.912Z,3.20
2023-02-27T01:05:45.340Z,3.50
2023-02-27T01:08:11.876Z,3.13
2023-02-27T01:10:38.411Z,3.50
2023-02-27T01:13:04.933Z,3.43
2023-02-27T01:15:31.465Z,3.40
2023-02-27T01:17:57.941Z,2.60
2023-02-27T01:20:24.440Z,3.40
2023-02-27T01:22:50.938Z,3.43
2023-02-27T01:25:17.477Z,3.50
2023-02-27T01:27:44.035Z,4.20
2023-02-27T01:30:12.594Z,2.90
2023-02-27T01:32:39.097Z,3.40
2023-02-27T01:35:06.339Z,3.57
2023-02-27T01:37:32.763Z,3.93
2023-02-27T01:39:59.339Z,4.27
2023-02-27T01:42:28.381Z,3.67
2023-02-27T01:45:16.903Z,3.60
2023-02-27T01:47:48.271Z,3.47
2023-02-27T01:50:16.889Z,4.17
2023-02-27T01:52:45.777Z,4.00
2023-02-27T01:55:13.692Z,4.20
2023-02-27T01:57:43.779Z,4.63
2023-02-27T02:00:10.867Z,4.40
2023-02-27T02:02:40.671Z,4.53
2023-02-27T02:05:08.792Z,3.80
2023-02-27T02:07:38.606Z,4.37
2023-02-27T02:10:06.336Z,3.60
2023-02-27T02:12:36.705Z,5.20
2023-02-27T02:15:04.466Z,3.80
2023-02-27T02:17:59.994Z,4.37
2023-02-27T02:20:47.437Z,4.37
2023-02-27T02:23:44.565Z,4.23
2023-02-27T02:26:47.489Z,3.30
2023-02-27T02:29:48.119Z,3.93
2023-02-27T02:32:38.727Z,3.40
2023-02-27T02:35:40.365Z,4.00
2023-02-27T02:38:06.705Z,3.80
2023-02-27T02:41:10.129Z,4.30
2023-02-27T02:43:41.696Z,4.40
2023-02-27T02:46:31.113Z,3.50
2023-02-27T02:49:11.085Z,5.10
2023-02-27T02:51:49.708Z,4.47
2023-02-27T02:54:34.638Z,4.47
2023-02-27T02:57:14.491Z,4.03
2023-02-27T03:00:00.550Z,4.40
2023-02-27T03:02:30.508Z,3.90
2023-02-27T03:05:05.285Z,3.83
2023-02-27T03:07:38.347Z,4.40
2023-02-27T03:10:09.218Z,4.07
2023-02-27T03:12:39.468Z,4.97
2023-02-27T03:15:18.310Z,4.20
2023-02-27T03:17:52.445Z,4.80
2023-02-27T03:20:31.504Z,3.77
2023-02-27T03:23:05.580Z,3.30
2023-02-27T03:25:34.544Z,3.50
2023-02-27T03:28:05.219Z,3.50
2023-02-27T03:31:06.385Z,4.50
2023-02-27T03:33:58.389Z,3.70
2023-02-27T03:36:29.599Z,4.90
2023-02-27T03:39:26.321Z,3.43
2023-02-27T03:42:10.173Z,2.77
2023-02-27T03:44:56.085Z,3.83
2023-02-27T03:47:22.729Z,3.30
2023-02-27T03:49:51.162Z,2.47
2023-02-27T03:52:20.570Z,2.47
2023-02-27T03:54:53.117Z,4.30
2023-02-27T03:57:19.831Z,2.43
2023-02-27T03:59:46.414Z,3.10
2023-02-27T04:02:12.913Z,2.93
2023-02-27T04:04:40.309Z,3.40
2023-02-27T04:07:25.003Z,2.97
2023-02-27T04:10:04.243Z,3.80
2023-02-27T04:13:01.794Z,2.60
2023-02-27T04:15:46.764Z,2.63
2023-02-27T04:18:48.555Z,3.57
2023-02-27T04:21:20.468Z,2.90
2023-02-27T04:24:11.530Z,4.77
2023-02-27T04:26:42.323Z,3.43
2023-02-27T04:29:28.000Z,3.00
2023-02-27T04:32:13.033Z,3.27
2023-02-27T04:34:43.841Z,3.80
2023-02-27T04:37:54.696Z,3.37
2023-02-27T04:40:28.273Z,2.93
2023-02-27T04:42:58.391Z,2.90
2023-02-27T04:45:27.617Z,2.33
2023-02-27T04:48:03.636Z,3.63
2023-02-27T04:50:48.342Z,3.27
2023-02-27T04:53:22.486Z,3.10
2023-02-27T04:55:57.272Z,3.40
2023-02-27T04:58:45.591Z,3.37
2023-02-27T05:01:18.477Z,2.77
2023-02-27T05:03:48.822Z,3.40
2023-02-27T05:06:17.748Z,2.60
2023-02-27T05:08:56.216Z,3.27
2023-02-27T05:11:42.555Z,2.90
2023-02-27T05:14:34.987Z,4.03
2023-02-27T05:17:01.373Z,3.27
2023-02-27T05:19:27.901Z,3.17
2023-02-27T05:22:05.910Z,3.70
2023-02-27T05:24:53.822Z,3.00
2023-02-27T05:27:35.167Z,2.67
2023-02-27T05:30:24.111Z,3.00
2023-02-27T05:32:59.391Z,3.57
2023-02-27T05:35:34.113Z,2.63
2023-02-27T05:38:09.996Z,3.43
2023-02-27T05:40:46.436Z,2.33
2023-02-27T05:43:18.995Z,2.80
2023-02-27T05:45:48.952Z,3.87
2023-02-27T05:48:20.795Z,2.57
2023-02-27T05:50:50.426Z,3.97
2023-02-27T05:53:18.919Z,2.90
2023-02-27T05:55:52.464Z,3.70
2023-02-27T05:58:24.985Z,2.50
2023-02-27T06:00:58.729Z,3.67
2023-02-27T06:03:27.121Z,3.47
2023-02-27T06:05:55.318Z,4.03
2023-02-27T06:08:22.262Z,3.03
2023-02-27T06:10:51.813Z,4.20
2023-02-27T06:13:18.896Z,2.47
2023-02-27T06:15:46.696Z,3.17
2023-02-27T06:18:13.876Z,2.03
2023-02-27T06:20:41.319Z,3.43
2023-02-27T06:23:08.623Z,3.57
2023-02-27T06:25:35.422Z,3.43
2023-02-27T06:28:02.056Z,3.27
2023-02-27T06:30:28.684Z,3.33
2023-02-27T06:32:55.279Z,4.13
2023-02-27T06:35:22.076Z,2.80
2023-02-27T06:37:48.644Z,3.40
2023-02-27T06:40:15.360Z,2.43
2023-02-27T06:42:43.072Z,3.43
2023-02-27T06:45:11.852Z,3.37
2023-02-27T06:47:39.445Z,3.20
2023-02-27T06:50:06.386Z,2.70
2023-02-27T06:52:33.468Z,2.70
2023-02-27T06:55:00.041Z,3.73
2023-02-27T06:57:26.473Z,2.60
2023-02-27T06:59:52.930Z,3.73
2023-02-27T07:02:19.488Z,3.20
2023-02-27T07:04:45.990Z,3.73
2023-02-27T07:07:33.089Z,4.03
2023-02-27T07:09:58.867Z,3.90
2023-02-27T07:12:25.568Z,3.43
2023-02-27T07:14:52.111Z,3.40
2023-02-27T07:17:18.664Z,2.73
2023-02-27T07:19:45.618Z,3.20
2023-02-27T07:22:12.242Z,3.17
2023-02-27T07:24:38.630Z,3.30
2023-02-27T07:27:05.075Z,3.20
2023-02-27T07:29:31.582Z,2.80
2023-02-27T07:31:58.116Z,2.87
2023-02-27T07:34:24.663Z,2.63
2023-02-27T07:36:51.096Z,3.47
2023-02-27T07:39:17.625Z,2.97
2023-02-27T07:41:44.078Z,2.83
2023-02-27T07:44:11.240Z,3.70
2023-02-27T07:46:37.728Z,3.87
2023-02-27T07:49:04.166Z,3.63
2023-02-27T07:51:31.342Z,3.30
2023-02-27T07:53:58.742Z,3.53
2023-02-27T07:56:27.112Z,3.07
2023-02-27T07:58:53.861Z,2.63
2023-02-27T08:01:20.312Z,3.30
2023-02-27T08:03:47.008Z,3.13
2023-02-27T08:06:14.067Z,4.60
2023-02-27T08:08:40.524Z,3.27
2023-02-27T08:11:07.079Z,2.60
2023-02-27T08:14:00.034Z,2.47
2023-02-27T08:16:21.209Z,2.67
2023-02-27T08:18:47.888Z,2.87
2023-02-27T08:21:14.484Z,2.97
2023-02-27T08:23:42.616Z,3.23
2023-02-27T08:26:09.169Z,2.20
2023-02-27T08:28:35.624Z,2.87
2023-02-27T08:31:02.142Z,3.10
2023-02-27T08:33:28.685Z,2.87
2023-02-27T08:35:55.815Z,3.27
2023-02-27T08:38:22.863Z,3.67
2023-02-27T08:40:54.999Z,2.67
2023-02-27T08:43:22.581Z,2.70
2023-02-27T08:45:50.078Z,2.47
2023-02-27T08:48:18.564Z,3.13
2023-02-27T08:50:46.785Z,2.97
2023-02-27T08:53:13.877Z,2.27
2023-02-27T08:55:40.445Z,2.60
2023-02-27T08:58:06.970Z,3.50
2023-02-27T09:00:33.468Z,3.43
2023-02-27T09:03:01.454Z,4.03
2023-02-27T09:05:28.642Z,2.73
2023-02-27T09:07:55.177Z,2.90
2023-02-27T09:10:21.684Z,3.10
2023-02-27T09:12:49.417Z,2.10
2023-02-27T09:15:16.226Z,2.27
2023-02-27T09:17:42.740Z,2.30
2023-02-27T09:20:10.724Z,2.40
2023-02-27T09:22:37.426Z,2.00
2023-02-27T09:25:04.360Z,2.50
2023-02-27T09:27:30.865Z,1.80
2023-02-27T09:29:57.397Z,1.43
2023-02-27T09:32:24.156Z,1.40
2023-02-27T09:34:50.668Z,1.23
2023-02-27T09:37:18.152Z,1.40
2023-02-27T09:39:46.383Z,1.40
2023-02-27T09:42:25.977Z,1.43
2023-02-27T09:44:55.980Z,1.97
2023-02-27T09:47:35.709Z,1.50
2023-02-27T09:50:07.087Z,1.93
2023-02-27T09:52:37.417Z,1.50
2023-02-27T09:55:17.187Z,1.83
2023-02-27T09:57:51.831Z,1.53
2023-02-27T10:00:39.887Z,2.33
2023-02-27T10:03:26.392Z,2.20
2023-02-27T10:06:30.786Z,1.33
2023-02-27T10:09:00.180Z,1.90
2023-02-27T10:12:07.650Z,1.60
2023-02-27T10:14:55.296Z,1.77
2023-02-27T10:17:27.834Z,1.50
2023-02-27T10:19:55.250Z,1.20
2023-02-27T10:22:28.102Z,1.70
2023-02-27T10:25:00.321Z,1.67
2023-02-27T10:27:26.918Z,1.63
2023-02-27T10:30:11.142Z,1.90
2023-02-27T10:32:39.597Z,1.50
2023-02-27T10:35:09.042Z,1.33
2023-02-27T10:37:40.414Z,1.30
2023-02-27T10:40:07.520Z,1.40
2023-02-27T10:42:40.694Z,1.33
2023-02-27T10:45:15.227Z,1.67
2023-02-27T10:47:42.902Z,0.97
2023-02-27T10:50:32.873Z,0.80
2023-02-27T10:53:06.834Z,1.53
2023-02-27T10:55:40.692Z,1.73
2023-02-27T10:58:07.493Z,2.23
2023-02-27T11:00:53.645Z,2.73
2023-02-27T11:03:23.826Z,2.03
2023-02-27T11:05:57.181Z,1.63
2023-02-27T11:08:29.412Z,1.67
2023-02-27T11:10:57.984Z,1.77
2023-02-27T11:13:28.791Z,1.13
2023-02-27T11:16:08.748Z,1.30
2023-02-27T11:18:38.875Z,1.73
2023-02-27T11:21:24.164Z,2.10
2023-02-27T11:24:07.677Z,1.33
2023-02-27T11:26:39.946Z,1.97
2023-02-27T11:29:18.250Z,1.70
2023-02-27T11:32:20.223Z,0.90
2023-02-27T11:34:49.654Z,1.43
2023-02-27T11:37:24.053Z,1.47
2023-02-27T11:39:57.402Z,0.80
2023-02-27T11:42:30.931Z,0.90
2023-02-27T11:45:02.579Z,1.00
2023-02-27T11:47:36.629Z,1.40
2023-02-27T11:50:09.351Z,1.20
2023-02-27T11:53:18.120Z,1.20
2023-02-27T11:55:46.848Z,1.00
2023-02-27T11:58:23.707Z,1.80
2023-02-27T12:01:03.488Z,0.70
2023-02-27T12:03:48.266Z,0.67
2023-02-27T12:06:21.815Z,1.13
2023-02-27T12:08:52.985Z,0.50
2023-02-27T12:11:29.183Z,0.67
2023-02-27T12:14:04.427Z,0.87
2023-02-27T12:16:45.529Z,1.20
2023-02-27T12:19:24.375Z,0.97
2023-02-27T12:21:56.598Z,0.70
2023-02-27T12:24:40.487Z,0.53
2023-02-27T12:27:23.810Z,1.23
2023-02-27T12:30:04.590Z,0.67
2023-02-27T12:32:42.337Z,1.40
2023-02-27T12:35:27.751Z,1.90
2023-02-27T12:37:54.410Z,0.87
2023-02-27T12:40:31.003Z,0.83
2023-02-27T12:43:32.631Z,0.90
2023-02-27T12:46:05.572Z,1.20
2023-02-27T12:48:59.633Z,0.90
2023-02-27T12:51:40.355Z,1.00
2023-02-27T12:54:18.973Z,1.40
2023-02-27T12:56:49.031Z,1.03
2023-02-27T12:59:30.568Z,1.30
2023-02-27T13:02:19.509Z,0.90
2023-02-27T13:04:52.175Z,1.20
2023-02-27T13:07:24.524Z,1.83
2023-02-27T13:10:13.604Z,1.20
2023-02-27T13:13:16.258Z,1.27
2023-02-27T13:15:51.050Z,1.27
2023-02-27T13:18:45.654Z,1.43
2023-02-27T13:21:43.834Z,1.27
2023-02-27T13:24:30.980Z,1.70
2023-02-27T13:27:02.259Z,1.53
2023-02-27T13:29:54.872Z,1.50
2023-02-27T13:32:44.178Z,1.00
2023-02-27T13:35:20.015Z,1.70
2023-02-27T13:37:56.768Z,2.40
2023-02-27T13:40:40.809Z,1.97
2023-02-27T13:43:26.179Z,1.70
2023-02-27T13:46:15.425Z,1.90
2023-02-27T13:48:45.209Z,1.80
2023-02-27T13:51:36.274Z,2.10
2023-02-27T13:54:09.362Z,1.67
2023-02-27T13:56:36.014Z,1.90
2023-02-27T13:59:23.704Z,1.20
2023-02-27T14:02:04.054Z,1.83
2023-02-27T14:04:37.402Z,1.80
2023-02-27T14:07:09.229Z,1.37
2023-02-27T14:09:42.542Z,1.40
2023-02-27T14:12:43.944Z,2.07
2023-02-27T14:15:17.460Z,1.83
2023-02-27T14:17:45.875Z,1.80
2023-02-27T14:20:19.483Z,2.30
2023-02-27T14:23:16.942Z,2.03
2023-02-27T14:26:02.216Z,1.90
2023-02-27T14:28:47.676Z,1.87
2023-02-27T14:31:33.863Z,1.27
2023-02-27T14:34:06.273Z,1.43
2023-02-27T14:36:38.009Z,1.70
2023-02-27T14:39:04.520Z,1.70
2023-02-27T14:41:55.589Z,1.30
2023-02-27T14:44:24.499Z,1.93
2023-02-27T14:46:53.645Z,1.63
2023-02-27T14:49:23.320Z,2.37
2023-02-27T14:51:50.633Z,1.67
2023-02-27T14:54:21.152Z,1.60
2023-02-27T14:56:54.530Z,1.77
2023-02-27T14:59:29.855Z,1.40
2023-02-27T15:01:59.069Z,1.50
2023-02-27T15:04:31.040Z,1.27
2023-02-27T15:06:59.237Z,1.27
2023-02-27T15:09:34.880Z,2.57
2023-02-27T15:12:04.450Z,2.20
2023-02-27T15:14:35.431Z,1.60
2023-02-27T15:17:01.955Z,1.83
2023-02-27T15:19:30.576Z,1.63
2023-02-27T15:21:59.638Z,1.37
2023-02-27T15:24:49.765Z,1.47
2023-02-27T15:27:21.412Z,1.97
2023-02-27T15:29:52.517Z,1.90
2023-02-27T15:32:24.733Z,1.73
2023-02-27T15:34:51.402Z,1.70
2023-02-27T15:37:23.332Z,1.87
2023-02-27T15:39:51.510Z,1.43
2023-02-27T15:42:19.344Z,1.80
2023-02-27T15:44:47.755Z,1.83
2023-02-27T15:47:27.779Z,2.77
2023-02-27T15:50:00.247Z,1.70
2023-02-27T15:52:31.425Z,1.60
2023-02-27T15:55:04.028Z,1.23
2023-02-27T15:57:32.330Z,1.83
2023-02-27T16:00:00.337Z,2.30
2023-02-27T16:02:43.121Z,1.50
2023-02-27T16:05:41.480Z,2.70
2023-02-27T16:08:08.411Z,2.60
2023-02-27T16:10:42.007Z,2.17
2023-02-27T16:13:37.102Z,2.03
2023-02-27T16:16:21.894Z,1.90
2023-02-27T16:18:53.788Z,1.30
2023-02-27T16:21:23.178Z,1.93
2023-02-27T16:23:50.787Z,1.97
2023-02-27T16:26:31.281Z,2.10
2023-02-27T16:29:07.377Z,2.47
2023-02-27T16:31:36.355Z,1.87
2023-02-27T16:34:13.193Z,1.63
2023-02-27T16:36:52.264Z,1.70
2023-02-27T16:39:18.731Z,2.83
2023-02-27T16:41:45.348Z,1.80
2023-02-27T16:44:11.987Z,2.77
2023-02-27T16:46:38.435Z,1.73
2023-02-27T16:49:19.130Z,2.27
2023-02-27T16:51:46.441Z,1.63
2023-02-27T16:54:13.732Z,2.13
2023-02-27T16:56:40.992Z,2.13
2023-02-27T16:59:14.550Z,3.13
2023-02-27T17:01:41.057Z,1.57
2023-02-27T17:04:19.665Z,2.20
2023-02-27T17:06:51.577Z,1.37
2023-02-27T17:09:18.093Z,2.10
2023-02-27T17:11:44.575Z,1.67
2023-02-27T17:14:11.003Z,2.43
2023-02-27T17:16:37.517Z,1.93
2023-02-27T17:19:03.988Z,1.57
2023-02-27T17:21:30.590Z,1.80
2023-02-27T17:23:57.037Z,2.07
2023-02-27T17:26:23.480Z,1.63
2023-02-27T17:28:49.950Z,2.83
2023-02-27T17:31:16.577Z,2.20
2023-02-27T17:33:43.053Z,2.37
2023-02-27T17:36:10.716Z,3.97
2023-02-27T17:38:37.280Z,1.87
2023-02-27T17:41:07.816Z,2.10
2023-02-27T17:43:34.744Z,1.80
2023-02-27T17:46:01.690Z,1.53
2023-02-27T17:48:28.400Z,1.50
2023-02-27T17:50:54.938Z,1.97
2023-02-27T17:53:21.638Z,2.33
2023-02-27T17:55:48.082Z,2.00
2023-02-27T17:58:16.892Z,2.57
2023-02-27T18:00:43.333Z,2.10
2023-02-27T18:03:09.816Z,2.40
2023-02-27T18:05:36.277Z,1.87
2023-02-27T18:08:02.772Z,1.73
2023-02-27T18:10:29.316Z,1.67
2023-02-27T18:12:55.717Z,2.03
2023-02-27T18:15:22.238Z,3.00
2023-02-27T18:17:48.698Z,1.83
2023-02-27T18:20:15.200Z,2.13
2023-02-27T18:22:41.687Z,1.63
2023-02-27T18:25:08.407Z,1.97
2023-02-27T18:27:35.077Z,1.77
2023-02-27T18:30:02.845Z,1.83
2023-02-27T18:32:29.337Z,1.50
2023-02-27T18:34:55.818Z,1.90
2023-02-27T18:37:22.280Z,2.50
2023-02-27T18:39:48.761Z,2.03
2023-02-27T18:42:15.498Z,2.80
2023-02-27T18:44:42.189Z,1.90
2023-02-27T18:47:09.606Z,2.37
2023-02-27T18:49:36.032Z,1.97
2023-02-27T18:52:02.879Z,1.80
2023-02-27T18:54:29.563Z,1.80
2023-02-27T18:56:56.078Z,2.13
2023-02-27T18:59:22.725Z,3.63
2023-02-27T19:01:49.186Z,2.50
2023-02-27T19:04:15.633Z,3.43
2023-02-27T19:06:42.533Z,3.77
2023-02-27T19:09:11.725Z,3.33
2023-02-27T19:11:38.575Z,3.17
2023-02-27T19:14:07.850Z,3.67
2023-02-27T19:16:35.373Z,3.77
2023-02-27T19:19:04.799Z,5.03
2023-02-27T19:21:31.960Z,5.67
2023-02-27T19:23:58.498Z,5.53
2023-02-27T19:26:24.994Z,5.27
2023-02-27T19:28:53.773Z,4.33
2023-02-27T19:31:22.214Z,4.73
2023-02-27T19:33:49.064Z,3.47
2023-02-27T19:36:17.867Z,4.87
2023-02-27T19:38:44.510Z,3.47
2023-02-27T19:41:13.320Z,5.20
2023-02-27T19:43:40.965Z,4.10
2023-02-27T19:46:10.858Z,4.00
2023-02-27T19:48:38.309Z,3.50
2023-02-27T19:51:07.536Z,3.43
2023-02-27T19:53:39.368Z,3.50
2023-02-27T19:56:15.987Z,3.50
2023-02-27T19:58:42.534Z,4.90
2023-02-27T20:01:09.901Z,5.27
2023-02-27T20:03:37.299Z,3.97
2023-02-27T20:06:09.087Z,5.70
2023-02-27T20:08:35.481Z,5.20
2023-02-27T20:11:04.246Z,6.47
2023-02-27T20:13:31.219Z,6.87
2023-02-27T20:16:04.421Z,7.70
2023-02-27T20:18:32.475Z,7.27
2023-02-27T20:21:12.406Z,6.13
2023-02-27T20:23:41.034Z,5.23
2023-02-27T20:26:14.853Z,5.87
2023-02-27T20:28:42.112Z,6.33
2023-02-27T20:31:10.384Z,5.93
2023-02-27T20:33:37.358Z,5.73
2023-02-27T20:36:06.018Z,5.70
2023-02-27T20:38:34.038Z,5.77
2023-02-27T20:41:00.724Z,5.90
2023-02-27T20:43:30.057Z,4.73
2023-02-27T20:45:56.607Z,4.43
2023-02-27T20:48:23.178Z,6.13
2023-02-27T20:50:49.620Z,5.17
2023-02-27T20:53:16.117Z,5.07
2023-02-27T20:55:49.669Z,4.00
2023-02-27T20:58:16.624Z,5.10
2023-02-27T21:00:43.185Z,4.07
2023-02-27T21:03:09.944Z,4.50
2023-02-27T21:05:36.486Z,3.60
2023-02-27T21:08:02.891Z,4.40
2023-02-27T21:10:29.345Z,4.93
2023-02-27T21:12:55.760Z,3.17
2023-02-27T21:15:22.270Z,4.53
2023-02-27T21:17:48.798Z,3.70
2023-02-27T21:20:15.307Z,4.10
2023-02-27T21:22:41.805Z,3.87
2023-02-27T21:25:08.578Z,3.87
2023-02-27T21:27:35.067Z,4.00
2023-02-27T21:30:01.574Z,3.93
2023-02-27T21:32:28.123Z,4.97
2023-02-27T21:34:54.591Z,3.73
2023-02-27T21:37:21.027Z,5.33
2023-02-27T21:39:52.346Z,4.33
2023-02-27T21:42:18.810Z,5.90
2023-02-27T21:44:45.232Z,4.60
2023-02-27T21:47:11.827Z,5.27
2023-02-27T21:49:39.282Z,4.30
2023-02-27T21:52:06.246Z,6.27
2023-02-27T21:54:32.757Z,4.37
2023-02-27T21:57:01.874Z,4.37
2023-02-27T21:59:28.801Z,3.83
2023-02-27T22:01:56.658Z,4.10
2023-02-27T22:04:23.793Z,4.47
2023-02-27T22:06:52.225Z,3.30
2023-02-27T22:09:19.581Z,4.43
2023-02-27T22:11:46.646Z,4.13
2023-02-27T22:14:13.255Z,5.63
2023-02-27T22:16:40.492Z,3.57
2023-02-27T22:19:08.723Z,4.33
2023-02-27T22:21:36.861Z,3.97
2023-02-27T22:24:03.906Z,4.63
2023-02-27T22:26:31.337Z,4.00
2023-02-27T22:28:59.690Z,4.17
2023-02-27T22:31:32.345Z,4.73
2023-02-27T22:34:03.562Z,3.67
2023-02-27T22:36:31.488Z,3.87
2023-02-27T22:38:58.812Z,3.90
2023-02-27T22:41:28.788Z,4.40
2023-02-27T22:43:56.346Z,3.47
2023-02-27T22:46:32.098Z,4.30
2023-02-27T22:49:01.430Z,4.67
2023-02-27T22:51:29.182Z,3.77
2023-02-27T22:53:57.917Z,4.53
2023-02-27T22:56:25.245Z,4.27
2023-02-27T22:58:51.735Z,3.17
2023-02-27T23:01:20.484Z,5.17
2023-02-27T23:03:49.069Z,3.77
2023-02-27T23:06:19.178Z,4.67
2023-02-27T23:08:45.845Z,3.50
2023-02-27T23:11:18.525Z,3.73
2023-02-27T23:13:45.369Z,3.27
2023-02-27T23:16:13.485Z,4.03
2023-02-27T23:18:48.879Z,3.90
2023-02-27T23:21:20.959Z,4.47
2023-02-27T23:23:48.121Z,3.77
2023-02-27T23:26:14.606Z,4.17
2023-02-27T23:28:41.709Z,3.47
2023-02-27T23:31:08.818Z,3.03
2023-02-27T23:33:35.704Z,3.83
2023-02-27T23:36:02.351Z,4.03
2023-02-27T23:38:29.137Z,4.33
2023-02-27T23:40:56.117Z,4.13
2023-02-27T23:43:22.799Z,4.23
2023-02-27T23:45:49.397Z,4.07
2023-02-27T23:48:15.911Z,3.60
2023-02-27T23:50:44.486Z,4.27
2023-02-27T23:53:12.206Z,3.50
2023-02-27T23:55:39.296Z,3.67
2023-02-27T23:58:09.759Z,3.20
